sensor_id;sensor_type;location;lat;lon;timestamp;pressure;altitude;pressure_sealevel;temperature;humidity
45129;BME280;35512;56.312;101.728;2023-06-22T00:01:41;95302.03;;;15.46;74.14
45129;BME280;35512;56.312;101.728;2023-06-22T00:04:11;95314.28;;;15.54;74.23
45129;BME280;35512;56.312;101.728;2023-06-22T00:06:40;95307.16;;;15.60;74.36
45129;BME280;35512;56.312;101.728;2023-06-22T00:09:12;95288.06;;;15.64;74.42
45129;BME280;35512;56.312;101.728;2023-06-22T00:11:41;95271.72;;;15.64;74.35
45129;BME280;35512;56.312;101.728;2023-06-22T00:14:10;95272.91;;;15.63;74.50
45129;BME280;35512;56.312;101.728;2023-06-22T00:16:40;95270.44;;;15.68;74.77
45129;BME280;35512;56.312;101.728;2023-06-22T00:19:09;95278.53;;;15.72;74.61
45129;BME280;35512;56.312;101.728;2023-06-22T00:21:40;95295.13;;;15.78;74.66
45129;BME280;35512;56.312;101.728;2023-06-22T00:24:09;95300.34;;;15.88;74.81
45129;BME280;35512;56.312;101.728;2023-06-22T00:26:38;95303.22;;;15.98;75.00
45129;BME280;35512;56.312;101.728;2023-06-22T00:29:10;95315.50;;;16.06;74.93
45129;BME280;35512;56.312;101.728;2023-06-22T00:31:40;95320.78;;;16.13;74.88
45129;BME280;35512;56.312;101.728;2023-06-22T00:34:09;95323.31;;;16.20;74.67
45129;BME280;35512;56.312;101.728;2023-06-22T00:36:38;95325.28;;;16.20;74.84
45129;BME280;35512;56.312;101.728;2023-06-22T00:39:10;95319.50;;;16.18;74.91
45129;BME280;35512;56.312;101.728;2023-06-22T00:41:39;95292.78;;;16.29;75.16
45129;BME280;35512;56.312;101.728;2023-06-22T00:44:08;95286.88;;;16.47;75.25
45129;BME280;35512;56.312;101.728;2023-06-22T00:46:37;95280.59;;;16.63;75.45
45129;BME280;35512;56.312;101.728;2023-06-22T00:49:06;95279.38;;;16.81;75.53
45129;BME280;35512;56.312;101.728;2023-06-22T00:51:37;95268.84;;;16.96;75.26
45129;BME280;35512;56.312;101.728;2023-06-22T00:54:07;95268.47;;;17.10;75.31
45129;BME280;35512;56.312;101.728;2023-06-22T00:56:36;95258.53;;;17.16;75.30
45129;BME280;35512;56.312;101.728;2023-06-22T00:59:06;95262.50;;;17.15;75.37
45129;BME280;35512;56.312;101.728;2023-06-22T01:01:36;95262.13;;;17.13;75.50
45129;BME280;35512;56.312;101.728;2023-06-22T01:04:11;95259.41;;;17.13;75.31
45129;BME280;35512;56.312;101.728;2023-06-22T01:06:58;95261.03;;;17.11;75.46
45129;BME280;35512;56.312;101.728;2023-06-22T01:09:39;95264.00;;;17.16;75.28
45129;BME280;35512;56.312;101.728;2023-06-22T01:12:14;95261.63;;;17.18;75.12
45129;BME280;35512;56.312;101.728;2023-06-22T01:14:58;95249.72;;;17.25;75.09
45129;BME280;35512;56.312;101.728;2023-06-22T01:17:32;95239.56;;;17.26;74.88
45129;BME280;35512;56.312;101.728;2023-06-22T01:20:02;95242.84;;;17.20;75.06
45129;BME280;35512;56.312;101.728;2023-06-22T01:22:46;95249.16;;;17.17;75.13
45129;BME280;35512;56.312;101.728;2023-06-22T01:25:28;95255.63;;;17.23;75.41
45129;BME280;35512;56.312;101.728;2023-06-22T01:28:24;95266.22;;;17.34;75.43
45129;BME280;35512;56.312;101.728;2023-06-22T01:30:55;95283.91;;;17.43;74.84
45129;BME280;35512;56.312;101.728;2023-06-22T01:33:39;95275.59;;;17.46;74.75
45129;BME280;35512;56.312;101.728;2023-06-22T01:36:10;95281.72;;;17.50;74.53
45129;BME280;35512;56.312;101.728;2023-06-22T01:38:39;95292.31;;;17.48;74.87
45129;BME280;35512;56.312;101.728;2023-06-22T01:41:10;95299.53;;;17.55;74.75
45129;BME280;35512;56.312;101.728;2023-06-22T01:43:40;95298.22;;;17.60;74.52
45129;BME280;35512;56.312;101.728;2023-06-22T01:46:10;95286.00;;;17.64;74.55
45129;BME280;35512;56.312;101.728;2023-06-22T01:48:40;95273.44;;;17.67;74.42
45129;BME280;35512;56.312;101.728;2023-06-22T01:51:10;95269.28;;;17.75;74.29
45129;BME280;35512;56.312;101.728;2023-06-22T01:53:39;95267.31;;;17.76;74.33
45129;BME280;35512;56.312;101.728;2023-06-22T01:56:09;95264.06;;;17.81;74.32
45129;BME280;35512;56.312;101.728;2023-06-22T01:58:48;95261.09;;;17.88;74.18
45129;BME280;35512;56.312;101.728;2023-06-22T02:01:24;95262.88;;;17.95;73.88
45129;BME280;35512;56.312;101.728;2023-06-22T02:04:11;95261.97;;;18.11;73.80
45129;BME280;35512;56.312;101.728;2023-06-22T02:06:43;95265.66;;;18.30;73.16
45129;BME280;35512;56.312;101.728;2023-06-22T02:09:16;95257.16;;;18.50;72.77
45129;BME280;35512;56.312;101.728;2023-06-22T02:11:46;95259.94;;;18.72;72.56
45129;BME280;35512;56.312;101.728;2023-06-22T02:14:18;95255.06;;;18.89;72.41
45129;BME280;35512;56.312;101.728;2023-06-22T02:16:47;95264.78;;;19.12;72.30
45129;BME280;35512;56.312;101.728;2023-06-22T02:19:16;95263.34;;;19.30;71.68
45129;BME280;35512;56.312;101.728;2023-06-22T02:21:47;95272.72;;;19.41;71.39
45129;BME280;35512;56.312;101.728;2023-06-22T02:24:21;95284.63;;;19.57;71.50
45129;BME280;35512;56.312;101.728;2023-06-22T02:26:51;95287.44;;;19.75;70.92
45129;BME280;35512;56.312;101.728;2023-06-22T02:29:20;95294.09;;;19.97;70.43
45129;BME280;35512;56.312;101.728;2023-06-22T02:31:49;95284.88;;;20.13;70.21
45129;BME280;35512;56.312;101.728;2023-06-22T02:34:21;95280.03;;;20.26;69.48
45129;BME280;35512;56.312;101.728;2023-06-22T02:36:52;95287.06;;;20.55;69.14
45129;BME280;35512;56.312;101.728;2023-06-22T02:39:23;95289.22;;;20.79;68.67
45129;BME280;35512;56.312;101.728;2023-06-22T02:41:54;95286.16;;;21.04;68.38
45129;BME280;35512;56.312;101.728;2023-06-22T02:44:24;95276.66;;;21.33;67.96
45129;BME280;35512;56.312;101.728;2023-06-22T02:46:53;95280.13;;;21.61;67.26
45129;BME280;35512;56.312;101.728;2023-06-22T02:49:23;95269.69;;;21.75;67.15
45129;BME280;35512;56.312;101.728;2023-06-22T02:51:52;95265.97;;;21.87;66.99
45129;BME280;35512;56.312;101.728;2023-06-22T02:54:22;95265.94;;;22.21;67.06
45129;BME280;35512;56.312;101.728;2023-06-22T02:56:54;95256.38;;;22.40;66.77
45129;BME280;35512;56.312;101.728;2023-06-22T02:59:23;95256.59;;;22.52;66.50
45129;BME280;35512;56.312;101.728;2023-06-22T03:02:01;95260.63;;;22.66;66.50
45129;BME280;35512;56.312;101.728;2023-06-22T03:04:33;95264.53;;;22.74;65.87
45129;BME280;35512;56.312;101.728;2023-06-22T03:07:03;95267.28;;;23.13;65.57
45129;BME280;35512;56.312;101.728;2023-06-22T03:09:34;95261.59;;;23.46;64.80
45129;BME280;35512;56.312;101.728;2023-06-22T03:12:03;95245.03;;;23.61;64.36
45129;BME280;35512;56.312;101.728;2023-06-22T03:14:43;95254.44;;;23.70;63.94
45129;BME280;35512;56.312;101.728;2023-06-22T03:17:12;95258.91;;;23.67;63.97
45129;BME280;35512;56.312;101.728;2023-06-22T03:19:41;95258.50;;;23.74;63.92
45129;BME280;35512;56.312;101.728;2023-06-22T03:22:10;95250.13;;;23.99;63.50
45129;BME280;35512;56.312;101.728;2023-06-22T03:24:41;95252.69;;;24.23;63.35
45129;BME280;35512;56.312;101.728;2023-06-22T03:27:10;95248.91;;;24.41;62.74
45129;BME280;35512;56.312;101.728;2023-06-22T03:29:40;95249.66;;;24.41;62.38
45129;BME280;35512;56.312;101.728;2023-06-22T03:32:09;95258.06;;;24.53;62.07
45129;BME280;35512;56.312;101.728;2023-06-22T03:34:38;95256.34;;;24.55;61.97
45129;BME280;35512;56.312;101.728;2023-06-22T03:37:07;95249.09;;;24.58;61.58
45129;BME280;35512;56.312;101.728;2023-06-22T03:39:36;95261.59;;;24.53;61.38
45129;BME280;35512;56.312;101.728;2023-06-22T03:42:06;95260.81;;;24.53;61.22
45129;BME280;35512;56.312;101.728;2023-06-22T03:44:35;95269.53;;;24.66;61.13
45129;BME280;35512;56.312;101.728;2023-06-22T03:47:06;95263.09;;;24.95;60.88
45129;BME280;35512;56.312;101.728;2023-06-22T03:49:36;95258.94;;;25.58;60.26
45129;BME280;35512;56.312;101.728;2023-06-22T03:52:07;95254.50;;;26.59;58.96
45129;BME280;35512;56.312;101.728;2023-06-22T03:54:36;95254.47;;;27.36;57.77
45129;BME280;35512;56.312;101.728;2023-06-22T03:57:05;95262.78;;;27.93;56.18
45129;BME280;35512;56.312;101.728;2023-06-22T03:59:35;95254.94;;;28.14;55.80
45129;BME280;35512;56.312;101.728;2023-06-22T04:02:05;95246.34;;;28.23;55.67
45129;BME280;35512;56.312;101.728;2023-06-22T04:04:35;95247.88;;;28.07;55.77
45129;BME280;35512;56.312;101.728;2023-06-22T04:07:04;95254.72;;;28.12;55.88
45129;BME280;35512;56.312;101.728;2023-06-22T04:09:33;95238.91;;;28.60;54.86
45129;BME280;35512;56.312;101.728;2023-06-22T04:12:02;95242.94;;;28.70;54.45
45129;BME280;35512;56.312;101.728;2023-06-22T04:14:31;95239.88;;;28.74;54.37
45129;BME280;35512;56.312;101.728;2023-06-22T04:17:01;95238.13;;;28.71;54.33
45129;BME280;35512;56.312;101.728;2023-06-22T04:19:30;95228.22;;;28.81;54.49
45129;BME280;35512;56.312;101.728;2023-06-22T04:21:59;95224.00;;;29.10;54.25
45129;BME280;35512;56.312;101.728;2023-06-22T04:24:29;95207.56;;;29.12;53.95
45129;BME280;35512;56.312;101.728;2023-06-22T04:26:58;95215.00;;;29.34;53.94
45129;BME280;35512;56.312;101.728;2023-06-22T04:29:31;95215.53;;;29.63;53.68
45129;BME280;35512;56.312;101.728;2023-06-22T04:32:00;95206.63;;;29.95;52.91
45129;BME280;35512;56.312;101.728;2023-06-22T04:34:33;95199.53;;;30.00;52.79
45129;BME280;35512;56.312;101.728;2023-06-22T04:37:03;95204.22;;;29.80;52.43
45129;BME280;35512;56.312;101.728;2023-06-22T04:39:32;95202.00;;;29.48;52.70
45129;BME280;35512;56.312;101.728;2023-06-22T04:42:01;95204.69;;;29.24;52.88
45129;BME280;35512;56.312;101.728;2023-06-22T04:44:31;95200.84;;;28.96;52.68
45129;BME280;35512;56.312;101.728;2023-06-22T04:47:02;95198.28;;;28.57;52.83
45129;BME280;35512;56.312;101.728;2023-06-22T04:49:36;95202.81;;;28.54;53.18
45129;BME280;35512;56.312;101.728;2023-06-22T04:52:10;95201.09;;;28.45;52.68
45129;BME280;35512;56.312;101.728;2023-06-22T04:54:40;95206.84;;;28.59;52.59
45129;BME280;35512;56.312;101.728;2023-06-22T04:57:16;95196.81;;;28.44;52.49
45129;BME280;35512;56.312;101.728;2023-06-22T04:59:45;95199.09;;;28.34;52.30
45129;BME280;35512;56.312;101.728;2023-06-22T05:02:15;95185.03;;;28.27;52.47
45129;BME280;35512;56.312;101.728;2023-06-22T05:04:45;95185.06;;;28.10;52.21
45129;BME280;35512;56.312;101.728;2023-06-22T05:07:20;95172.53;;;27.80;52.32
45129;BME280;35512;56.312;101.728;2023-06-22T05:09:49;95166.50;;;27.65;52.77
45129;BME280;35512;56.312;101.728;2023-06-22T05:12:21;95170.53;;;27.75;52.55
45129;BME280;35512;56.312;101.728;2023-06-22T05:14:50;95175.34;;;27.58;52.32
45129;BME280;35512;56.312;101.728;2023-06-22T05:17:19;95174.56;;;27.29;52.18
45129;BME280;35512;56.312;101.728;2023-06-22T05:19:49;95179.09;;;26.92;52.39
45129;BME280;35512;56.312;101.728;2023-06-22T05:22:19;95169.22;;;26.63;52.72
45129;BME280;35512;56.312;101.728;2023-06-22T05:24:48;95164.59;;;26.37;52.42
45129;BME280;35512;56.312;101.728;2023-06-22T05:27:17;95166.56;;;26.25;52.85
45129;BME280;35512;56.312;101.728;2023-06-22T05:29:46;95169.91;;;26.46;53.05
45129;BME280;35512;56.312;101.728;2023-06-22T05:32:15;95168.75;;;26.81;52.99
45129;BME280;35512;56.312;101.728;2023-06-22T05:34:44;95176.09;;;27.30;51.79
45129;BME280;35512;56.312;101.728;2023-06-22T05:37:13;95172.28;;;27.78;50.68
45129;BME280;35512;56.312;101.728;2023-06-22T05:39:42;95166.19;;;28.03;50.64
45129;BME280;35512;56.312;101.728;2023-06-22T05:42:11;95179.38;;;28.44;50.39
45129;BME280;35512;56.312;101.728;2023-06-22T05:44:39;95160.50;;;29.81;49.87
45129;BME280;35512;56.312;101.728;2023-06-22T05:47:09;95166.63;;;31.64;48.23
45129;BME280;35512;56.312;101.728;2023-06-22T05:49:38;95167.44;;;32.32;46.34
45129;BME280;35512;56.312;101.728;2023-06-22T05:52:08;95161.16;;;32.52;45.83
45129;BME280;35512;56.312;101.728;2023-06-22T05:54:37;95157.94;;;32.08;45.18
45129;BME280;35512;56.312;101.728;2023-06-22T05:57:07;95154.28;;;31.60;44.65
45129;BME280;35512;56.312;101.728;2023-06-22T05:59:36;95152.78;;;31.13;45.26
45129;BME280;35512;56.312;101.728;2023-06-22T06:02:05;95153.72;;;31.15;44.87
45129;BME280;35512;56.312;101.728;2023-06-22T06:04:36;95158.91;;;31.25;44.57
45129;BME280;35512;56.312;101.728;2023-06-22T06:07:05;95150.88;;;31.67;43.83
45129;BME280;35512;56.312;101.728;2023-06-22T06:09:34;95154.06;;;33.63;42.02
45129;BME280;35512;56.312;101.728;2023-06-22T06:12:03;95156.13;;;35.40;40.38
45129;BME280;35512;56.312;101.728;2023-06-22T06:14:33;95150.13;;;35.97;38.81
45129;BME280;35512;56.312;101.728;2023-06-22T06:17:03;95160.03;;;35.29;38.57
45129;BME280;35512;56.312;101.728;2023-06-22T06:19:33;95156.16;;;33.91;39.00
45129;BME280;35512;56.312;101.728;2023-06-22T06:22:02;95160.16;;;32.77;40.00
45129;BME280;35512;56.312;101.728;2023-06-22T06:24:31;95159.38;;;32.01;40.43
45129;BME280;35512;56.312;101.728;2023-06-22T06:27:00;95157.38;;;31.56;40.71
45129;BME280;35512;56.312;101.728;2023-06-22T06:29:32;95149.56;;;31.22;40.83
45129;BME280;35512;56.312;101.728;2023-06-22T06:32:01;95153.38;;;30.87;41.51
45129;BME280;35512;56.312;101.728;2023-06-22T06:34:30;95144.75;;;30.52;41.39
45129;BME280;35512;56.312;101.728;2023-06-22T06:36:59;95140.78;;;30.23;41.74
45129;BME280;35512;56.312;101.728;2023-06-22T06:39:28;95150.34;;;30.52;41.24
45129;BME280;35512;56.312;101.728;2023-06-22T06:41:57;95144.09;;;30.21;40.55
45129;BME280;35512;56.312;101.728;2023-06-22T06:44:26;95146.63;;;29.50;41.55
45129;BME280;35512;56.312;101.728;2023-06-22T06:46:56;95145.59;;;28.87;41.95
45129;BME280;35512;56.312;101.728;2023-06-22T06:49:25;95158.03;;;28.22;42.92
45129;BME280;35512;56.312;101.728;2023-06-22T06:51:54;95158.47;;;27.44;43.71
45129;BME280;35512;56.312;101.728;2023-06-22T06:54:24;95158.34;;;26.42;44.69
45129;BME280;35512;56.312;101.728;2023-06-22T06:56:53;95155.31;;;25.48;46.02
45129;BME280;35512;56.312;101.728;2023-06-22T06:59:22;95161.97;;;24.98;46.88
45129;BME280;35512;56.312;101.728;2023-06-22T07:01:51;95160.00;;;24.52;47.77
45129;BME280;35512;56.312;101.728;2023-06-22T07:04:21;95163.47;;;24.05;48.60
45129;BME280;35512;56.312;101.728;2023-06-22T07:06:50;95172.16;;;23.62;49.90
45129;BME280;35512;56.312;101.728;2023-06-22T07:09:19;95164.88;;;23.44;50.20
45129;BME280;35512;56.312;101.728;2023-06-22T07:11:48;95163.84;;;23.42;50.59
45129;BME280;35512;56.312;101.728;2023-06-22T07:14:17;95158.78;;;23.55;50.74
45129;BME280;35512;56.312;101.728;2023-06-22T07:16:45;95149.22;;;23.71;50.65
45129;BME280;35512;56.312;101.728;2023-06-22T07:19:14;95152.72;;;23.72;50.45
45129;BME280;35512;56.312;101.728;2023-06-22T07:21:43;95156.63;;;23.44;50.96
45129;BME280;35512;56.312;101.728;2023-06-22T07:24:12;95147.44;;;23.18;51.59
45129;BME280;35512;56.312;101.728;2023-06-22T07:26:41;95152.09;;;22.96;52.24
45129;BME280;35512;56.312;101.728;2023-06-22T07:29:14;95151.06;;;22.79;52.64
45129;BME280;35512;56.312;101.728;2023-06-22T07:31:45;95138.41;;;22.57;53.17
45129;BME280;35512;56.312;101.728;2023-06-22T07:34:14;95148.81;;;22.38;53.52
45129;BME280;35512;56.312;101.728;2023-06-22T07:36:44;95134.63;;;22.16;54.00
45129;BME280;35512;56.312;101.728;2023-06-22T07:39:14;95139.34;;;22.15;54.23
45129;BME280;35512;56.312;101.728;2023-06-22T07:41:43;95126.78;;;22.23;54.18
45129;BME280;35512;56.312;101.728;2023-06-22T07:44:12;95137.13;;;22.28;54.36
45129;BME280;35512;56.312;101.728;2023-06-22T07:46:41;95139.81;;;22.38;54.38
45129;BME280;35512;56.312;101.728;2023-06-22T07:49:10;95134.91;;;22.42;54.23
45129;BME280;35512;56.312;101.728;2023-06-22T07:51:39;95133.19;;;22.44;54.21
45129;BME280;35512;56.312;101.728;2023-06-22T07:54:09;95124.00;;;22.62;54.37
45129;BME280;35512;56.312;101.728;2023-06-22T07:56:38;95125.44;;;22.88;54.01
45129;BME280;35512;56.312;101.728;2023-06-22T07:59:07;95134.63;;;23.15;53.46
45129;BME280;35512;56.312;101.728;2023-06-22T08:01:37;95121.50;;;23.09;53.44
45129;BME280;35512;56.312;101.728;2023-06-22T08:04:06;95124.47;;;22.91;53.73
45129;BME280;35512;56.312;101.728;2023-06-22T08:06:35;95122.97;;;22.75;54.03
45129;BME280;35512;56.312;101.728;2023-06-22T08:09:04;95121.81;;;22.67;54.43
45129;BME280;35512;56.312;101.728;2023-06-22T08:11:33;95124.75;;;22.63;54.37
45129;BME280;35512;56.312;101.728;2023-06-22T08:14:02;95120.75;;;22.34;54.66
45129;BME280;35512;56.312;101.728;2023-06-22T08:16:31;95117.44;;;22.06;55.25
45129;BME280;35512;56.312;101.728;2023-06-22T08:19:00;95113.63;;;21.88;55.77
45129;BME280;35512;56.312;101.728;2023-06-22T08:21:29;95109.88;;;21.76;56.26
45129;BME280;35512;56.312;101.728;2023-06-22T08:23:58;95103.78;;;21.72;56.33
45129;BME280;35512;56.312;101.728;2023-06-22T08:26:27;95095.72;;;21.69;56.39
45129;BME280;35512;56.312;101.728;2023-06-22T08:28:58;95091.34;;;21.62;56.44
45129;BME280;35512;56.312;101.728;2023-06-22T08:31:27;95098.53;;;21.59;56.73
45129;BME280;35512;56.312;101.728;2023-06-22T08:33:56;95096.22;;;21.34;56.99
45129;BME280;35512;56.312;101.728;2023-06-22T08:36:25;95097.72;;;21.10;57.64
45129;BME280;35512;56.312;101.728;2023-06-22T08:38:58;95086.28;;;21.03;57.78
45129;BME280;35512;56.312;101.728;2023-06-22T08:41:31;95097.78;;;20.92;57.97
45129;BME280;35512;56.312;101.728;2023-06-22T08:44:00;95092.03;;;20.81;58.12
45129;BME280;35512;56.312;101.728;2023-06-22T08:46:29;95095.66;;;20.77;58.62
45129;BME280;35512;56.312;101.728;2023-06-22T08:49:00;95094.78;;;20.62;58.83
45129;BME280;35512;56.312;101.728;2023-06-22T08:51:29;95094.19;;;20.49;59.45
45129;BME280;35512;56.312;101.728;2023-06-22T08:53:58;95092.22;;;20.49;59.43
45129;BME280;35512;56.312;101.728;2023-06-22T08:56:27;95092.78;;;20.63;59.83
45129;BME280;35512;56.312;101.728;2023-06-22T08:58:56;95082.28;;;20.80;59.68
45129;BME280;35512;56.312;101.728;2023-06-22T09:01:28;95060.22;;;20.98;59.53
45129;BME280;35512;56.312;101.728;2023-06-22T09:03:57;95054.91;;;21.28;59.63
45129;BME280;35512;56.312;101.728;2023-06-22T09:06:28;95067.50;;;21.68;59.11
45129;BME280;35512;56.312;101.728;2023-06-22T09:08:59;95057.53;;;22.10;58.58
45129;BME280;35512;56.312;101.728;2023-06-22T09:11:29;95057.19;;;22.32;57.98
45129;BME280;35512;56.312;101.728;2023-06-22T09:13:58;95053.06;;;22.52;57.92
45129;BME280;35512;56.312;101.728;2023-06-22T09:16:27;95049.97;;;22.79;57.57
45129;BME280;35512;56.312;101.728;2023-06-22T09:18:56;95055.09;;;23.02;56.97
45129;BME280;35512;56.312;101.728;2023-06-22T09:21:25;95058.59;;;23.02;56.56
45129;BME280;35512;56.312;101.728;2023-06-22T09:23:53;95036.97;;;22.95;56.74
45129;BME280;35512;56.312;101.728;2023-06-22T09:26:22;95036.28;;;23.00;56.54
45129;BME280;35512;56.312;101.728;2023-06-22T09:28:52;95027.19;;;22.94;56.66
45129;BME280;35512;56.312;101.728;2023-06-22T09:31:21;95034.72;;;22.78;57.09
45129;BME280;35512;56.312;101.728;2023-06-22T09:33:54;95025.63;;;22.72;57.34
45129;BME280;35512;56.312;101.728;2023-06-22T09:36:23;95012.72;;;22.78;56.92
45129;BME280;35512;56.312;101.728;2023-06-22T09:38:52;95011.25;;;22.83;57.20
45129;BME280;35512;56.312;101.728;2023-06-22T09:41:23;95008.41;;;22.92;57.03
45129;BME280;35512;56.312;101.728;2023-06-22T09:43:52;95005.06;;;23.03;56.59
45129;BME280;35512;56.312;101.728;2023-06-22T09:46:23;95009.88;;;23.08;56.61
45129;BME280;35512;56.312;101.728;2023-06-22T09:48:57;95004.63;;;23.10;56.87
45129;BME280;35512;56.312;101.728;2023-06-22T09:51:26;95008.16;;;23.11;57.05
45129;BME280;35512;56.312;101.728;2023-06-22T09:53:55;95010.59;;;23.24;56.99
45129;BME280;35512;56.312;101.728;2023-06-22T09:56:24;95012.69;;;23.29;56.93
45129;BME280;35512;56.312;101.728;2023-06-22T09:58:56;95010.69;;;23.29;56.47
45129;BME280;35512;56.312;101.728;2023-06-22T10:01:45;95020.03;;;23.17;56.53
45129;BME280;35512;56.312;101.728;2023-06-22T10:04:15;95021.66;;;23.09;56.47
45129;BME280;35512;56.312;101.728;2023-06-22T10:06:44;95025.84;;;23.19;56.44
45129;BME280;35512;56.312;101.728;2023-06-22T10:09:13;95021.88;;;23.26;56.30
45129;BME280;35512;56.312;101.728;2023-06-22T10:11:42;95028.09;;;23.21;56.38
45129;BME280;35512;56.312;101.728;2023-06-22T10:14:11;95034.66;;;23.23;56.39
45129;BME280;35512;56.312;101.728;2023-06-22T10:16:40;95034.16;;;23.25;56.24
45129;BME280;35512;56.312;101.728;2023-06-22T10:19:09;95036.38;;;23.21;56.48
45129;BME280;35512;56.312;101.728;2023-06-22T10:21:38;95042.19;;;23.28;56.30
45129;BME280;35512;56.312;101.728;2023-06-22T10:24:07;95048.38;;;23.38;55.99
45129;BME280;35512;56.312;101.728;2023-06-22T10:26:37;95055.72;;;23.47;55.47
45129;BME280;35512;56.312;101.728;2023-06-22T10:29:06;95057.81;;;23.52;55.36
45129;BME280;35512;56.312;101.728;2023-06-22T10:31:44;95060.13;;;23.59;55.37
45129;BME280;35512;56.312;101.728;2023-06-22T10:34:13;95064.75;;;23.68;55.11
45129;BME280;35512;56.312;101.728;2023-06-22T10:36:42;95057.59;;;23.76;54.99
45129;BME280;35512;56.312;101.728;2023-06-22T10:39:16;95069.44;;;23.83;55.07
45129;BME280;35512;56.312;101.728;2023-06-22T10:41:45;95063.72;;;23.86;54.71
45129;BME280;35512;56.312;101.728;2023-06-22T10:44:14;95068.47;;;23.86;54.66
45129;BME280;35512;56.312;101.728;2023-06-22T10:46:43;95064.34;;;23.75;55.00
45129;BME280;35512;56.312;101.728;2023-06-22T10:49:12;95060.75;;;23.69;55.01
45129;BME280;35512;56.312;101.728;2023-06-22T10:51:41;95064.69;;;23.62;55.05
45129;BME280;35512;56.312;101.728;2023-06-22T10:54:10;95058.28;;;23.51;55.24
45129;BME280;35512;56.312;101.728;2023-06-22T10:56:42;95055.72;;;23.47;55.29
45129;BME280;35512;56.312;101.728;2023-06-22T10:59:13;95052.78;;;23.51;55.05
45129;BME280;35512;56.312;101.728;2023-06-22T11:01:42;95047.66;;;23.43;55.06
45129;BME280;35512;56.312;101.728;2023-06-22T11:04:12;95043.66;;;23.44;55.11
45129;BME280;35512;56.312;101.728;2023-06-22T11:06:41;95039.88;;;23.42;54.91
45129;BME280;35512;56.312;101.728;2023-06-22T11:09:10;95043.31;;;23.37;54.91
45129;BME280;35512;56.312;101.728;2023-06-22T11:11:44;95049.97;;;23.30;54.84
45129;BME280;35512;56.312;101.728;2023-06-22T11:14:13;95038.63;;;23.22;54.82
45129;BME280;35512;56.312;101.728;2023-06-22T11:16:42;95053.56;;;23.16;54.75
45129;BME280;35512;56.312;101.728;2023-06-22T11:19:12;95053.38;;;23.04;54.94
45129;BME280;35512;56.312;101.728;2023-06-22T11:21:41;95060.50;;;22.96;55.13
45129;BME280;35512;56.312;101.728;2023-06-22T11:24:10;95064.13;;;22.87;55.36
45129;BME280;35512;56.312;101.728;2023-06-22T11:26:39;95062.31;;;22.84;55.52
45129;BME280;35512;56.312;101.728;2023-06-22T11:29:08;95065.56;;;22.83;55.58
45129;BME280;35512;56.312;101.728;2023-06-22T11:31:51;95069.81;;;22.84;55.39
45129;BME280;35512;56.312;101.728;2023-06-22T11:34:20;95076.00;;;22.78;55.44
45129;BME280;35512;56.312;101.728;2023-06-22T11:36:57;95075.53;;;22.65;55.67
45129;BME280;35512;56.312;101.728;2023-06-22T11:39:26;95070.31;;;22.52;55.82
45129;BME280;35512;56.312;101.728;2023-06-22T11:42:10;95078.38;;;22.41;56.09
45129;BME280;35512;56.312;101.728;2023-06-22T11:44:39;95079.19;;;22.32;56.31
45129;BME280;35512;56.312;101.728;2023-06-22T11:47:08;95077.19;;;22.18;56.48
45129;BME280;35512;56.312;101.728;2023-06-22T11:49:37;95071.25;;;21.95;57.01
45129;BME280;35512;56.312;101.728;2023-06-22T11:52:06;95086.88;;;21.89;57.15
45129;BME280;35512;56.312;101.728;2023-06-22T11:54:35;95084.84;;;21.74;57.30
45129;BME280;35512;56.312;101.728;2023-06-22T11:57:04;95076.38;;;21.63;57.54
45129;BME280;35512;56.312;101.728;2023-06-22T11:59:33;95083.16;;;21.53;57.89
45129;BME280;35512;56.312;101.728;2023-06-22T12:02:03;95073.91;;;21.41;58.17
45129;BME280;35512;56.312;101.728;2023-06-22T12:04:34;95082.78;;;21.36;58.37
45129;BME280;35512;56.312;101.728;2023-06-22T12:07:03;95085.88;;;21.28;58.71
45129;BME280;35512;56.312;101.728;2023-06-22T12:09:32;95077.22;;;21.21;58.80
45129;BME280;35512;56.312;101.728;2023-06-22T12:12:01;95093.41;;;21.19;58.96
45129;BME280;35512;56.312;101.728;2023-06-22T12:14:31;95094.03;;;21.14;58.95
45129;BME280;35512;56.312;101.728;2023-06-22T12:17:00;95094.88;;;20.96;59.37
45129;BME280;35512;56.312;101.728;2023-06-22T12:19:29;95105.75;;;20.81;59.61
45129;BME280;35512;56.312;101.728;2023-06-22T12:21:58;95100.56;;;20.73;59.69
45129;BME280;35512;56.312;101.728;2023-06-22T12:24:27;95106.69;;;20.68;60.01
45129;BME280;35512;56.312;101.728;2023-06-22T12:26:56;95105.75;;;20.62;60.03
45129;BME280;35512;56.312;101.728;2023-06-22T12:29:25;95100.28;;;20.53;60.25
45129;BME280;35512;56.312;101.728;2023-06-22T12:31:54;95099.69;;;20.49;60.68
45129;BME280;35512;56.312;101.728;2023-06-22T12:34:23;95102.88;;;20.47;60.76
45129;BME280;35512;56.312;101.728;2023-06-22T12:36:53;95099.38;;;20.47;60.87
45129;BME280;35512;56.312;101.728;2023-06-22T12:39:23;95099.06;;;20.44;61.02
45129;BME280;35512;56.312;101.728;2023-06-22T12:41:52;95101.53;;;20.42;61.19
45129;BME280;35512;56.312;101.728;2023-06-22T12:44:21;95095.44;;;20.38;61.52
45129;BME280;35512;56.312;101.728;2023-06-22T12:46:50;95101.81;;;20.35;61.63
45129;BME280;35512;56.312;101.728;2023-06-22T12:49:19;95103.97;;;20.31;61.80
45129;BME280;35512;56.312;101.728;2023-06-22T12:51:48;95099.41;;;20.28;61.75
45129;BME280;35512;56.312;101.728;2023-06-22T12:54:17;95109.16;;;20.20;61.99
45129;BME280;35512;56.312;101.728;2023-06-22T12:56:46;95105.66;;;20.10;62.21